Time;durP1;ratioP1;P1;durP2;ratioP2;P2;SDS_P1;SDS_P2;PMS_P1;PMS_P2;Temp;Humidity;BMP_temperature;BMP_pressure;BME280_temperature;BME280_humidity;BME280_pressure;Samples;Min_cycle;Max_cycle;Signal;HPM_P1;HPM_P2
2021/03/05 00:00:20;;;;;;;8.80;8.10;;;8.70;91.40;;;;;;4965579;28;20249;-88
2021/03/05 00:02:46;;;;;;;9.53;8.73;;;8.50;90.40;;;;;;4965750;28;20207;-89
2021/03/05 00:05:12;;;;;;;9.43;8.63;;;8.60;90.60;;;;;;4977454;28;20225;-88
2021/03/05 00:07:38;;;;;;;9.73;8.93;;;8.50;90.30;;;;;;4986079;28;20182;-88
2021/03/05 00:10:10;;;;;;;7.87;7.27;;;8.40;91.60;;;;;;4985219;28;20202;-88
2021/03/05 00:12:36;;;;;;;7.87;7.27;;;8.30;89.20;;;;;;4985400;28;20769;-88
2021/03/05 00:15:04;;;;;;;8.10;7.40;;;8.30;87.90;;;;;;4984733;28;20182;-88
2021/03/05 00:17:30;;;;;;;8.00;7.40;;;8.20;87.90;;;;;;4983568;28;20258;-88
2021/03/05 00:19:55;;;;;;;7.53;6.93;;;8.20;88.10;;;;;;4984432;28;20706;-88
2021/03/05 00:22:21;;;;;;;7.70;6.97;;;8.20;88.70;;;;;;4984959;28;20195;-89
2021/03/05 00:24:47;;;;;;;8.27;7.57;;;8.00;88.90;;;;;;4984969;28;20183;-88
2021/03/05 00:27:13;;;;;;;9.07;8.27;;;8.00;87.50;;;;;;4985240;28;20179;-88
2021/03/05 00:29:38;;;;;;;8.90;8.07;;;7.80;86.70;;;;;;4984877;28;20206;-88
2021/03/05 00:32:04;;;;;;;9.40;8.50;;;7.80;87.30;;;;;;4999698;28;20306;-88
2021/03/05 00:34:30;;;;;;;9.27;8.10;;;7.80;88.10;;;;;;4984570;28;20275;-88
2021/03/05 00:36:55;;;;;;;8.80;8.00;;;7.80;87.60;;;;;;4984919;28;20175;-89
2021/03/05 00:39:21;;;;;;;9.70;8.80;;;7.90;87.30;;;;;;4984478;28;20266;-89
2021/03/05 00:41:47;;;;;;;10.17;9.27;;;7.90;87.10;;;;;;4999830;28;20198;-88
2021/03/05 00:44:12;;;;;;;10.73;9.63;;;7.60;85.10;;;;;;4983882;28;20191;-88
2021/03/05 00:46:38;;;;;;;10.47;9.47;;;7.50;86.50;;;;;;5000603;28;20183;-88
2021/03/05 00:49:04;;;;;;;10.43;9.33;;;7.30;86.40;;;;;;4980489;28;20693;-87
2021/03/05 00:51:29;;;;;;;9.97;9.07;;;7.30;85.50;;;;;;4983681;28;20179;-87
2021/03/05 00:53:55;;;;;;;11.33;10.23;;;7.20;85.60;;;;;;4985362;28;20179;-88
2021/03/05 00:56:21;;;;;;;11.23;10.17;;;7.30;86.00;;;;;;4987906;28;20179;-88
2021/03/05 00:58:46;;;;;;;10.30;9.30;;;7.30;86.10;;;;;;4985308;28;20198;-87
2021/03/05 01:01:12;;;;;;;11.77;10.23;;;7.20;84.70;;;;;;4984925;28;20259;-87
2021/03/05 01:03:38;;;;;;;10.67;9.47;;;7.30;84.70;;;;;;4983409;28;20257;-87
2021/03/05 01:06:04;;;;;;;10.83;9.70;;;7.20;83.80;;;;;;4984371;28;20221;-87
2021/03/05 01:08:30;;;;;;;10.93;9.80;;;7.20;85.90;;;;;;4984326;28;20261;-87
2021/03/05 01:10:55;;;;;;;12.00;10.37;;;7.20;82.00;;;;;;5000005;28;20235;-87
2021/03/05 01:13:21;;;;;;;12.30;11.00;;;7.10;83.30;;;;;;4985207;28;20354;-89
2021/03/05 01:15:47;;;;;;;11.30;10.03;;;7.10;83.20;;;;;;5000524;28;20195;-86
2021/03/05 01:18:13;;;;;;;12.47;11.10;;;7.00;82.90;;;;;;4985486;28;20218;-87
2021/03/05 01:20:39;;;;;;;11.37;10.17;;;6.90;84.30;;;;;;4984933;28;20580;-87
2021/03/05 01:23:05;;;;;;;12.77;11.03;;;6.90;83.40;;;;;;4983551;28;20187;-87
2021/03/05 01:25:32;;;;;;;13.63;11.60;;;6.80;83.00;;;;;;4985470;28;20218;-86
2021/03/05 01:27:58;;;;;;;13.20;11.27;;;6.70;83.10;;;;;;4985105;28;20194;-87
2021/03/05 01:30:25;;;;;;;13.43;11.03;;;6.70;83.90;;;;;;4984985;28;20203;-87
2021/03/05 01:32:51;;;;;;;13.40;11.13;;;6.60;83.30;;;;;;4984821;28;20269;-87
2021/03/05 01:35:22;;;;;;;13.90;11.30;;;6.60;84.50;;;;;;4984993;28;20290;-87
2021/03/05 01:37:49;;;;;;;15.17;12.47;;;6.70;84.00;;;;;;4984893;28;20401;-88
2021/03/05 01:40:39;;;;;;;15.60;12.57;;;6.60;82.50;;;;;;4984808;28;20238;-89
2021/03/05 01:43:10;;;;;;;15.97;11.77;;;6.60;82.70;;;;;;4985408;28;20655;-87
2021/03/05 01:45:37;;;;;;;14.20;11.30;;;6.60;82.20;;;;;;4984860;28;20182;-87
2021/03/05 01:48:14;;;;;;;14.00;11.30;;;6.60;83.10;;;;;;4985772;28;20210;-87
2021/03/05 01:51:07;;;;;;;14.73;12.13;;;6.70;84.30;;;;;;4985481;28;20207;-87
2021/03/05 01:53:32;;;;;;;14.07;11.33;;;6.80;83.30;;;;;;4986389;28;20199;-88
2021/03/05 01:55:59;;;;;;;13.03;11.63;;;6.90;81.30;;;;;;5001549;28;20179;-88
2021/03/05 01:58:25;;;;;;;14.50;11.40;;;6.80;79.90;;;;;;5001484;28;20671;-88
2021/03/05 02:01:01;;;;;;;14.97;11.40;;;6.80;81.50;;;;;;4967809;28;575682;-88
2021/03/05 02:03:30;;;;;;;13.23;10.83;;;6.80;80.30;;;;;;4985518;28;20580;-87
2021/03/05 02:05:56;;;;;;;13.73;11.63;;;6.60;80.40;;;;;;4987203;28;20263;-88
2021/03/05 02:08:22;;;;;;;15.57;11.80;;;6.70;81.60;;;;;;4987470;28;20183;-88
2021/03/05 02:10:48;;;;;;;10.63;9.33;;;6.70;79.30;;;;;;4988527;28;20227;-87
2021/03/05 02:13:14;;;;;;;12.27;10.50;;;6.70;81.50;;;;;;4988589;28;20274;-88
2021/03/05 02:15:40;;;;;;;13.07;11.13;;;6.80;81.10;;;;;;4987408;28;20697;-88
2021/03/05 02:18:31;;;;;;;15.20;11.47;;;6.80;81.20;;;;;;4987482;28;20195;-88
2021/03/05 02:21:28;;;;;;;13.50;11.60;;;6.90;79.70;;;;;;5004855;28;20218;-88
2021/03/05 02:24:08;;;;;;;13.57;11.90;;;6.90;79.50;;;;;;4987491;28;20183;-88
2021/03/05 02:27:17;;;;;;;15.10;12.07;;;7.00;79.60;;;;;;4987192;28;20171;-88
2021/03/05 02:30:04;;;;;;;13.03;10.70;;;6.80;80.90;;;;;;4985413;28;20206;-87
2021/03/05 02:32:48;;;;;;;13.13;10.93;;;6.70;79.00;;;;;;4986580;28;20285;-88
2021/03/05 02:35:15;;;;;;;13.40;11.33;;;6.60;78.40;;;;;;4986854;28;20227;-87
2021/03/05 02:37:44;;;;;;;13.07;11.03;;;6.60;79.00;;;;;;4986745;28;20554;-88
2021/03/05 02:40:30;;;;;;;13.83;11.10;;;6.50;78.70;;;;;;4986075;28;20687;-88
2021/03/05 02:42:59;;;;;;;12.70;10.77;;;6.40;78.90;;;;;;4982674;28;20203;-88
2021/03/05 02:45:33;;;;;;;12.87;11.00;;;6.40;77.90;;;;;;4984716;28;20274;-88
2021/03/05 02:48:21;;;;;;;12.50;10.97;;;6.40;79.20;;;;;;4985179;28;20166;-88
2021/03/05 02:50:53;;;;;;;11.13;9.53;;;6.40;77.30;;;;;;4984996;28;20206;-88
2021/03/05 02:53:22;;;;;;;11.20;10.07;;;6.30;79.30;;;;;;4984931;28;20195;-90
2021/03/05 02:55:52;;;;;;;11.97;10.77;;;6.40;77.80;;;;;;4984895;28;20183;-88
2021/03/05 02:58:20;;;;;;;11.77;10.57;;;6.40;79.20;;;;;;4985077;28;20190;-88
2021/03/05 03:00:46;;;;;;;11.43;10.00;;;6.40;78.10;;;;;;4984320;28;20273;-88
2021/03/05 03:03:13;;;;;;;12.50;11.20;;;6.40;77.80;;;;;;4984124;28;20270;-88
2021/03/05 03:05:40;;;;;;;12.60;11.13;;;6.50;78.10;;;;;;4984309;28;20190;-88
2021/03/05 03:08:09;;;;;;;12.53;10.60;;;6.40;77.80;;;;;;4984963;28;20179;-88
2021/03/05 03:10:35;;;;;;;11.23;9.73;;;6.40;78.00;;;;;;4984687;28;20704;-88
2021/03/05 03:13:02;;;;;;;13.13;11.57;;;6.50;79.70;;;;;;4984458;28;20238;-88
2021/03/05 03:15:30;;;;;;;12.23;10.93;;;6.50;76.30;;;;;;4983856;28;20193;-88
2021/03/05 03:18:02;;;;;;;12.47;10.87;;;6.50;76.40;;;;;;4983391;28;20213;-88
2021/03/05 03:20:29;;;;;;;11.97;10.20;;;6.60;77.60;;;;;;4999678;28;20207;-88
2021/03/05 03:22:55;;;;;;;11.27;10.13;;;6.70;78.10;;;;;;4984637;28;20198;-88
2021/03/05 03:25:23;;;;;;;12.63;11.23;;;6.80;77.00;;;;;;4983639;28;20191;-88
2021/03/05 03:27:50;;;;;;;11.03;9.63;;;6.90;77.60;;;;;;4984175;28;20198;-88
2021/03/05 03:30:16;;;;;;;11.80;10.60;;;6.90;77.30;;;;;;4984028;28;20203;-89
2021/03/05 03:32:43;;;;;;;11.37;10.17;;;7.00;76.00;;;;;;4983786;28;20241;-88
2021/03/05 03:35:11;;;;;;;12.43;10.77;;;7.10;77.60;;;;;;4984013;28;20183;-88
2021/03/05 03:37:37;;;;;;;12.43;11.13;;;7.20;74.70;;;;;;4982445;28;20700;-89
2021/03/05 03:40:17;;;;;;;13.00;11.53;;;7.20;75.60;;;;;;4983893;28;20210;-88
2021/03/05 03:42:44;;;;;;;13.27;11.87;;;7.10;75.20;;;;;;4984878;28;20518;-88
2021/03/05 03:45:11;;;;;;;13.10;11.60;;;7.00;75.60;;;;;;4987261;28;20214;-88
2021/03/05 03:47:37;;;;;;;12.03;10.70;;;7.00;76.00;;;;;;4999199;28;20203;-88
2021/03/05 03:50:07;;;;;;;12.03;10.67;;;6.90;74.40;;;;;;4984253;28;20337;-88
2021/03/05 03:52:45;;;;;;;13.30;11.90;;;6.80;76.90;;;;;;4984424;28;20199;-88
2021/03/05 03:55:12;;;;;;;12.83;11.27;;;7.00;77.60;;;;;;4984126;28;20163;-88
2021/03/05 03:57:44;;;;;;;13.53;11.47;;;7.00;75.00;;;;;;4999261;28;20194;-88
2021/03/05 04:00:11;;;;;;;13.80;12.40;;;6.90;76.20;;;;;;4983874;28;20215;-88
2021/03/05 04:02:38;;;;;;;14.70;11.27;;;6.80;75.70;;;;;;4983353;28;20201;-88
2021/03/05 04:05:14;;;;;;;13.03;11.70;;;6.80;77.60;;;;;;4982235;28;20187;-88
2021/03/05 04:07:43;;;;;;;14.93;11.87;;;6.80;77.50;;;;;;4982678;28;20225;-88
2021/03/05 04:10:10;;;;;;;11.80;10.50;;;6.80;76.70;;;;;;4983833;28;20213;-88
2021/03/05 04:12:38;;;;;;;13.67;10.63;;;6.90;77.20;;;;;;4982387;28;20257;-88
2021/03/05 04:15:05;;;;;;;13.80;11.90;;;7.00;78.00;;;;;;4984725;28;20179;-88
2021/03/05 04:17:31;;;;;;;12.77;11.47;;;7.00;76.30;;;;;;4984900;28;20185;-88
2021/03/05 04:19:57;;;;;;;12.90;11.37;;;7.10;77.80;;;;;;4984084;28;20294;-87
2021/03/05 04:22:25;;;;;;;13.77;12.40;;;7.10;75.30;;;;;;4983424;28;20194;-87
2021/03/05 04:24:50;;;;;;;13.67;12.27;;;7.00;74.90;;;;;;4983567;28;20182;-87
2021/03/05 04:27:16;;;;;;;13.57;12.00;;;6.90;75.50;;;;;;4983225;28;20194;-87
2021/03/05 04:29:42;;;;;;;13.30;11.90;;;6.80;78.40;;;;;;4983962;28;20203;-87
2021/03/05 04:32:08;;;;;;;13.87;12.37;;;6.70;76.80;;;;;;4983193;28;20214;-88
2021/03/05 04:34:34;;;;;;;14.47;12.73;;;6.70;76.80;;;;;;4982899;28;20190;-88
2021/03/05 04:36:59;;;;;;;12.87;10.87;;;6.60;77.20;;;;;;4983576;28;20190;-88
2021/03/05 04:39:25;;;;;;;13.93;12.03;;;6.70;78.90;;;;;;4982859;28;20201;-88
2021/03/05 04:41:51;;;;;;;13.40;12.00;;;6.80;78.60;;;;;;4982207;28;20183;-89
2021/03/05 04:44:17;;;;;;;13.47;11.67;;;6.90;77.70;;;;;;4983748;28;20194;-87
2021/03/05 04:46:43;;;;;;;16.63;12.73;;;6.70;76.80;;;;;;4983852;28;20593;-88
2021/03/05 04:49:09;;;;;;;15.67;12.00;;;6.70;78.70;;;;;;4982952;28;20183;-88
2021/03/05 04:51:34;;;;;;;15.63;12.70;;;6.70;78.10;;;;;;4981194;28;20194;-88
2021/03/05 04:54:00;;;;;;;14.67;13.07;;;6.50;78.80;;;;;;4983153;28;20195;-88
2021/03/05 04:56:26;;;;;;;15.10;12.40;;;6.50;79.00;;;;;;4982372;28;20199;-88
2021/03/05 04:58:52;;;;;;;14.63;11.93;;;6.60;78.20;;;;;;4982995;28;20665;-88
2021/03/05 05:01:17;;;;;;;14.57;12.30;;;6.50;78.80;;;;;;4981318;28;20202;-88
2021/03/05 05:03:43;;;;;;;15.20;12.80;;;6.40;79.30;;;;;;4983353;28;20258;-87
2021/03/05 05:06:10;;;;;;;16.03;13.77;;;6.60;80.40;;;;;;4997609;28;20179;-88
2021/03/05 05:08:35;;;;;;;14.83;13.10;;;6.60;78.80;;;;;;4984861;28;20186;-87
2021/03/05 05:11:01;;;;;;;13.80;12.30;;;6.60;77.80;;;;;;4998448;28;20601;-87
2021/03/05 05:13:27;;;;;;;16.17;14.43;;;6.50;79.80;;;;;;4981406;28;20266;-88
2021/03/05 05:15:53;;;;;;;15.60;13.40;;;6.50;78.40;;;;;;4982585;28;20255;-87
2021/03/05 05:18:20;;;;;;;17.30;15.50;;;6.50;80.20;;;;;;4981510;28;20194;-88
2021/03/05 05:20:45;;;;;;;15.07;13.50;;;6.50;78.30;;;;;;4982341;28;20206;-87
2021/03/05 05:23:11;;;;;;;13.80;12.37;;;6.40;79.30;;;;;;4982938;28;20277;-88
2021/03/05 05:25:37;;;;;;;17.20;14.77;;;6.50;80.10;;;;;;4982213;28;20186;-87
2021/03/05 05:28:03;;;;;;;14.33;12.90;;;6.50;80.00;;;;;;4996642;28;20734;-87
2021/03/05 05:30:28;;;;;;;16.30;12.67;;;6.60;79.50;;;;;;4981951;28;20207;-88
2021/03/05 05:32:54;;;;;;;14.23;12.30;;;6.50;79.50;;;;;;4982186;28;20238;-88
2021/03/05 05:35:20;;;;;;;14.40;12.90;;;6.60;79.30;;;;;;4981558;28;20209;-88
2021/03/05 05:37:46;;;;;;;15.10;12.67;;;6.60;78.30;;;;;;4986300;28;20264;-87
2021/03/05 05:40:12;;;;;;;15.83;13.57;;;6.60;78.60;;;;;;4985901;28;20211;-88
2021/03/05 05:42:38;;;;;;;14.40;12.90;;;6.60;78.20;;;;;;4986139;28;20278;-87
2021/03/05 05:45:05;;;;;;;14.43;12.83;;;6.60;78.60;;;;;;4985928;28;20211;-87
2021/03/05 05:47:35;;;;;;;16.20;13.20;;;6.60;78.40;;;;;;4985880;28;20662;-87
2021/03/05 05:50:06;;;;;;;16.83;14.27;;;6.60;78.60;;;;;;4985970;28;20207;-88
2021/03/05 05:52:32;;;;;;;15.87;13.20;;;6.60;78.70;;;;;;4985915;28;20678;-87
2021/03/05 05:55:00;;;;;;;17.07;13.83;;;6.60;78.80;;;;;;4986033;28;20290;-88
2021/03/05 05:57:27;;;;;;;16.73;14.10;;;6.60;78.80;;;;;;4986491;28;20195;-87
2021/03/05 05:59:52;;;;;;;16.80;13.73;;;6.50;78.40;;;;;;4985445;28;20214;-88
2021/03/05 06:02:18;;;;;;;17.37;13.40;;;6.40;78.90;;;;;;4986829;28;20195;-88
2021/03/05 06:04:44;;;;;;;19.00;14.30;;;6.30;78.20;;;;;;5003391;28;20278;-88
2021/03/05 06:07:11;;;;;;;19.67;14.00;;;6.20;79.50;;;;;;5003080;28;20273;-87
2021/03/05 06:09:37;;;;;;;16.90;13.83;;;6.20;78.90;;;;;;4987285;28;20214;-87
2021/03/05 06:12:13;;;;;;;18.90;14.63;;;6.10;79.70;;;;;;4981349;28;20215;-88
2021/03/05 06:14:43;;;;;;;15.83;13.27;;;6.00;80.40;;;;;;4984019;28;20179;-87
2021/03/05 06:17:09;;;;;;;17.97;14.57;;;6.00;81.30;;;;;;4968022;28;20215;-88
2021/03/05 06:19:34;;;;;;;19.53;15.40;;;6.10;81.30;;;;;;4964682;28;20206;-88
2021/03/05 06:22:01;;;;;;;19.47;14.70;;;6.10;81.20;;;;;;4983053;28;20202;-88
2021/03/05 06:24:28;;;;;;;17.40;14.13;;;6.00;81.30;;;;;;4983543;28;20207;-87
2021/03/05 06:26:56;;;;;;;18.53;14.80;;;6.00;81.60;;;;;;4983915;28;20183;-87
2021/03/05 06:29:25;;;;;;;20.97;14.77;;;6.00;82.10;;;;;;4978355;28;20203;-87
2021/03/05 06:31:58;;;;;;;17.00;15.20;;;6.10;82.80;;;;;;4992810;28;20199;-88
2021/03/05 06:34:24;;;;;;;21.90;15.30;;;6.10;81.90;;;;;;4980530;28;20646;-87
2021/03/05 06:37:00;;;;;;;19.27;15.67;;;6.20;81.90;;;;;;4986363;28;20244;-86
2021/03/05 06:39:27;;;;;;;20.03;15.87;;;6.20;81.90;;;;;;4983026;28;20252;-88
2021/03/05 06:42:04;;;;;;;18.13;15.33;;;6.10;82.30;;;;;;4984683;28;20175;-89
2021/03/05 06:44:31;;;;;;;19.90;15.60;;;6.00;82.70;;;;;;4997683;28;20233;-88
2021/03/05 06:47:06;;;;;;;17.60;15.23;;;5.90;83.60;;;;;;4982770;28;20179;-87
2021/03/05 06:49:31;;;;;;;16.77;13.73;;;5.80;84.80;;;;;;4996626;28;20198;-87
2021/03/05 06:51:57;;;;;;;22.03;16.13;;;5.70;85.40;;;;;;4983165;28;20209;-88
2021/03/05 06:54:30;;;;;;;22.43;16.00;;;5.70;86.40;;;;;;4998637;28;20183;-87
2021/03/05 06:56:56;;;;;;;20.50;18.03;;;5.70;86.10;;;;;;4992921;28;20188;-87
2021/03/05 06:59:23;;;;;;;18.77;15.33;;;5.70;85.90;;;;;;4996771;28;20229;-87
2021/03/05 07:01:56;;;;;;;20.83;15.50;;;5.60;86.70;;;;;;4985390;28;20295;-88
2021/03/05 07:04:47;;;;;;;21.17;15.87;;;5.70;87.20;;;;;;4982619;28;20194;-88
2021/03/05 07:07:14;;;;;;;18.67;15.50;;;5.80;86.40;;;;;;4980178;28;20562;-88
2021/03/05 07:09:47;;;;;;;20.70;15.37;;;5.80;86.70;;;;;;4981500;28;20211;-88
2021/03/05 07:12:17;;;;;;;18.60;15.63;;;5.90;85.90;;;;;;4981530;28;20218;-88
2021/03/05 07:14:51;;;;;;;19.90;15.50;;;6.00;85.90;;;;;;4998552;28;20250;-88
2021/03/05 07:17:19;;;;;;;18.67;15.93;;;6.00;85.60;;;;;;4984236;28;20210;-89
2021/03/05 07:19:44;;;;;;;20.73;16.13;;;5.90;87.30;;;;;;4993342;28;20207;-88
2021/03/05 07:22:13;;;;;;;23.00;16.33;;;6.00;87.30;;;;;;4995638;28;20206;-88
2021/03/05 07:24:39;;;;;;;18.30;15.33;;;5.80;87.10;;;;;;4983578;28;20275;-88
2021/03/05 07:27:09;;;;;;;18.83;14.53;;;5.80;88.40;;;;;;4982133;28;20199;-89
2021/03/05 07:29:45;;;;;;;24.20;16.97;;;5.90;87.50;;;;;;4976419;28;20234;-88
2021/03/05 07:32:40;;;;;;;17.47;14.90;;;6.00;85.20;;;;;;4980775;28;20241;-87
2021/03/05 07:35:20;;;;;;;17.97;14.93;;;5.90;85.00;;;;;;4977740;28;20187;-87
2021/03/05 07:37:50;;;;;;;20.00;16.47;;;5.80;85.20;;;;;;4992610;28;20182;-88
2021/03/05 07:40:17;;;;;;;26.63;21.50;;;5.70;86.40;;;;;;4994911;28;20682;-88
2021/03/05 07:42:44;;;;;;;25.07;17.63;;;5.70;87.40;;;;;;4997223;28;20195;-87
2021/03/05 07:45:12;;;;;;;24.13;19.33;;;5.70;88.20;;;;;;4990397;28;20726;-88
2021/03/05 07:47:43;;;;;;;27.03;23.20;;;5.70;88.50;;;;;;4984114;28;20194;-87
2021/03/05 07:50:11;;;;;;;21.00;16.27;;;5.80;89.10;;;;;;4981206;28;20617;-88
2021/03/05 07:52:38;;;;;;;19.63;17.47;;;5.90;88.80;;;;;;4981984;28;20424;-88
2021/03/05 07:55:04;;;;;;;20.23;17.23;;;5.90;89.70;;;;;;4977738;28;20183;-88
2021/03/05 07:57:30;;;;;;;27.87;23.47;;;5.90;87.90;;;;;;4983404;28;20207;-88
2021/03/05 07:59:59;;;;;;;22.73;17.30;;;5.90;88.30;;;;;;4982081;28;20230;-88
2021/03/05 08:02:45;;;;;;;19.43;16.33;;;6.00;88.80;;;;;;4983021;28;20187;-88
2021/03/05 08:05:14;;;;;;;21.87;17.43;;;6.00;87.20;;;;;;4975128;28;20199;-88
2021/03/05 08:07:39;;;;;;;20.07;16.73;;;6.00;88.40;;;;;;4961690;28;20191;-88
2021/03/05 08:10:06;;;;;;;23.80;18.53;;;6.10;87.40;;;;;;4980211;28;20273;-88
2021/03/05 08:15:07;;;;;;;25.50;18.13;;;6.10;85.90;;;;;;4978055;28;20195;-88
2021/03/05 08:17:44;;;;;;;17.90;15.87;;;6.10;87.50;;;;;;4982320;28;20203;-88
2021/03/05 08:20:36;;;;;;;20.87;17.27;;;5.90;87.00;;;;;;4981011;28;20218;-88
2021/03/05 08:23:02;;;;;;;20.27;15.37;;;5.90;87.20;;;;;;4979500;28;20214;-88
2021/03/05 08:25:36;;;;;;;15.70;14.10;;;5.80;86.70;;;;;;4981517;28;20214;-89
2021/03/05 08:28:04;;;;;;;18.83;15.40;;;5.70;87.00;;;;;;4980872;28;20195;-89
2021/03/05 08:30:33;;;;;;;16.57;12.33;;;5.70;86.10;;;;;;4983087;28;20265;-88
2021/03/05 08:32:59;;;;;;;15.27;12.97;;;5.60;86.50;;;;;;4981511;28;20211;-88
2021/03/05 08:35:30;;;;;;;16.87;13.27;;;5.50;86.30;;;;;;4981556;28;20186;-89
2021/03/05 08:38:00;;;;;;;16.83;14.57;;;5.60;87.20;;;;;;4983518;28;20186;-89
2021/03/05 08:40:37;;;;;;;18.47;14.07;;;5.60;86.20;;;;;;4982543;28;20210;-87
2021/03/05 08:43:08;;;;;;;19.00;13.60;;;5.70;85.10;;;;;;4978287;28;20205;-86
2021/03/05 08:45:38;;;;;;;16.03;13.73;;;5.60;85.10;;;;;;4980734;28;20183;-86
2021/03/05 08:48:04;;;;;;;18.03;14.07;;;5.60;85.20;;;;;;4976408;28;20190;-86
2021/03/05 08:50:33;;;;;;;19.17;14.60;;;5.60;85.90;;;;;;4982519;28;20207;-86
2021/03/05 08:53:12;;;;;;;16.10;12.67;;;5.80;85.50;;;;;;4995962;28;20238;-86
2021/03/05 08:55:40;;;;;;;17.17;13.70;;;5.90;85.10;;;;;;4981710;28;20184;-86
2021/03/05 08:58:07;;;;;;;16.23;13.27;;;6.10;84.90;;;;;;4984966;28;20251;-87
2021/03/05 09:00:35;;;;;;;16.30;12.87;;;6.20;84.30;;;;;;4975331;28;20222;-87
2021/03/05 09:03:09;;;;;;;16.10;13.97;;;6.20;82.10;;;;;;4994545;28;20195;-86
2021/03/05 09:05:40;;;;;;;15.33;12.27;;;6.20;82.70;;;;;;4983062;28;20310;-87
2021/03/05 09:08:09;;;;;;;15.87;12.40;;;6.30;81.70;;;;;;4981921;28;20194;-88
2021/03/05 09:10:52;;;;;;;14.53;12.03;;;6.20;81.50;;;;;;4991745;28;20206;-87
2021/03/05 09:13:24;;;;;;;15.30;12.90;;;6.30;80.80;;;;;;4985947;28;20221;-87
2021/03/05 09:15:55;;;;;;;13.87;11.30;;;6.30;80.90;;;;;;4987622;28;20618;-87
2021/03/05 09:18:24;;;;;;;16.47;12.23;;;6.30;81.60;;;;;;4983555;28;20206;-87
2021/03/05 09:21:04;;;;;;;14.03;11.67;;;6.20;81.50;;;;;;4986211;28;20302;-88
2021/03/05 09:23:44;;;;;;;12.13;10.83;;;6.20;80.40;;;;;;4982996;28;20278;-88
2021/03/05 09:26:17;;;;;;;14.77;10.73;;;6.30;81.50;;;;;;4983133;28;20496;-87
2021/03/05 09:29:02;;;;;;;13.20;10.30;;;6.20;79.70;;;;;;4982885;28;20234;-87
2021/03/05 09:31:28;;;;;;;13.67;11.47;;;6.20;77.90;;;;;;4993583;28;20199;-87
2021/03/05 09:33:55;;;;;;;12.60;10.17;;;6.20;81.00;;;;;;4979841;28;20215;-87
2021/03/05 09:36:23;;;;;;;13.73;10.27;;;6.20;79.20;;;;;;4997068;28;20187;-87
2021/03/05 09:39:03;;;;;;;11.93;10.27;;;6.30;80.40;;;;;;4980961;28;20245;-87
2021/03/05 09:41:33;;;;;;;12.23;9.77;;;6.30;77.80;;;;;;4986054;28;21485;-88
2021/03/05 09:44:10;;;;;;;11.43;9.40;;;6.40;77.30;;;;;;4982310;28;20183;-87
2021/03/05 09:46:38;;;;;;;11.10;9.60;;;6.40;76.70;;;;;;4985974;28;20662;-88
2021/03/05 09:49:25;;;;;;;11.90;9.30;;;6.40;76.70;;;;;;4980951;28;20219;-89
2021/03/05 09:51:52;;;;;;;11.13;8.83;;;6.40;77.10;;;;;;4983304;28;20182;-88
2021/03/05 09:54:19;;;;;;;11.90;9.17;;;6.30;76.10;;;;;;4981098;28;20214;-87
2021/03/05 09:56:48;;;;;;;12.90;10.30;;;6.30;76.00;;;;;;4986616;28;20203;-88
2021/03/05 09:59:14;;;;;;;11.57;8.67;;;6.30;77.70;;;;;;4979492;28;20230;-88
2021/03/05 10:01:42;;;;;;;10.43;9.17;;;6.40;76.00;;;;;;4984205;28;20219;-88
2021/03/05 10:04:10;;;;;;;11.70;9.77;;;6.40;76.70;;;;;;4983345;28;20187;-88
2021/03/05 10:06:36;;;;;;;11.47;9.40;;;6.50;74.90;;;;;;4984268;28;20190;-87
2021/03/05 10:09:08;;;;;;;12.30;9.93;;;6.50;73.60;;;;;;4982276;28;20673;-88
2021/03/05 10:11:40;;;;;;;12.00;10.10;;;6.40;76.10;;;;;;4983952;28;20198;-87
2021/03/05 10:14:08;;;;;;;11.57;10.30;;;6.30;75.50;;;;;;4985471;28;20668;-89
2021/03/05 10:16:38;;;;;;;12.47;9.40;;;6.30;75.90;;;;;;4983380;28;20777;-88
2021/03/05 10:19:21;;;;;;;11.63;9.10;;;6.30;74.70;;;;;;5000870;28;20194;-89
2021/03/05 10:21:55;;;;;;;12.93;10.43;;;6.30;74.80;;;;;;4980569;28;20613;-89
2021/03/05 10:24:28;;;;;;;13.67;10.33;;;6.30;76.00;;;;;;4983110;28;20214;-88
2021/03/05 10:27:10;;;;;;;13.40;11.13;;;6.30;75.40;;;;;;4998756;28;20187;-88
2021/03/05 10:29:39;;;;;;;12.53;10.83;;;6.30;76.90;;;;;;4983281;28;20234;-88
2021/03/05 10:32:33;;;;;;;12.87;11.30;;;6.30;76.80;;;;;;4988621;28;20195;-87
2021/03/05 10:35:01;;;;;;;15.77;11.83;;;6.30;76.60;;;;;;4982555;28;20212;-87
2021/03/05 10:37:27;;;;;;;12.17;11.00;;;6.30;77.30;;;;;;4998994;28;20179;-88
2021/03/05 10:39:54;;;;;;;14.50;11.53;;;6.40;76.20;;;;;;4983411;28;20769;-87
2021/03/05 10:42:21;;;;;;;14.27;11.60;;;6.40;76.00;;;;;;4980657;28;20191;-87
2021/03/05 10:44:48;;;;;;;15.43;12.07;;;6.50;75.60;;;;;;4978069;28;20191;-87
2021/03/05 10:47:16;;;;;;;13.27;10.63;;;6.60;74.60;;;;;;4987962;28;20187;-87
2021/03/05 10:49:44;;;;;;;20.00;15.17;;;6.50;74.90;;;;;;4982248;28;20211;-88
2021/03/05 10:52:11;;;;;;;12.33;10.57;;;6.50;73.80;;;;;;4981799;28;20215;-87
2021/03/05 10:54:41;;;;;;;12.83;10.50;;;6.60;74.90;;;;;;4979706;28;20179;-88
2021/03/05 10:57:17;;;;;;;12.40;10.23;;;6.60;73.00;;;;;;4982034;28;20198;-88
2021/03/05 10:59:44;;;;;;;11.43;10.23;;;6.50;73.40;;;;;;4983924;28;20218;-89
2021/03/05 11:02:11;;;;;;;15.30;9.90;;;6.50;73.10;;;;;;4982903;28;20203;-87
2021/03/05 11:04:37;;;;;;;15.20;9.73;;;6.50;74.10;;;;;;4984123;28;20598;-88
2021/03/05 11:07:03;;;;;;;14.17;9.93;;;6.60;74.10;;;;;;4983899;28;20195;-88
2021/03/05 11:09:29;;;;;;;14.93;10.80;;;6.60;73.70;;;;;;4980766;28;20710;-88
2021/03/05 11:11:55;;;;;;;12.20;10.60;;;6.60;72.90;;;;;;4980215;28;20194;-88
2021/03/05 11:14:22;;;;;;;11.93;10.53;;;6.60;72.90;;;;;;4971588;28;20195;-88
2021/03/05 11:16:48;;;;;;;21.23;15.37;;;6.60;73.10;;;;;;4977841;28;20186;-88
2021/03/05 11:19:14;;;;;;;15.13;11.33;;;6.60;73.20;;;;;;4975176;28;20223;-88
2021/03/05 11:21:40;;;;;;;14.70;11.30;;;6.60;73.60;;;;;;4971387;28;20183;-88
2021/03/05 11:24:07;;;;;;;13.93;11.90;;;6.50;73.70;;;;;;4975346;28;20214;-88
2021/03/05 11:26:33;;;;;;;19.37;13.17;;;6.60;74.60;;;;;;4980535;28;20241;-88
2021/03/05 11:28:59;;;;;;;17.27;12.47;;;6.60;72.60;;;;;;4984856;28;20187;-89
2021/03/05 11:31:24;;;;;;;32.87;27.37;;;6.60;73.20;;;;;;4985767;28;20197;-88
2021/03/05 11:33:51;;;;;;;17.83;15.00;;;6.70;72.90;;;;;;4996409;28;20211;-88
2021/03/05 11:36:18;;;;;;;17.63;12.03;;;6.80;72.30;;;;;;4983843;28;20175;-89
2021/03/05 11:38:45;;;;;;;16.07;12.93;;;6.80;72.80;;;;;;4985751;28;20195;-88
2021/03/05 11:41:13;;;;;;;15.77;14.07;;;6.70;72.20;;;;;;4984473;28;20249;-88
2021/03/05 11:43:40;;;;;;;35.33;32.03;;;6.80;72.40;;;;;;4984357;28;20214;-88
2021/03/05 11:46:07;;;;;;;17.90;15.57;;;6.80;71.90;;;;;;4985155;28;20217;-89
2021/03/05 11:48:32;;;;;;;32.43;29.40;;;6.90;72.20;;;;;;4982096;28;20213;-89
2021/03/05 11:50:58;;;;;;;23.87;21.60;;;6.90;71.60;;;;;;4982451;28;20207;-88
2021/03/05 11:53:24;;;;;;;18.77;14.00;;;7.00;72.30;;;;;;4985999;28;20281;-88
2021/03/05 11:55:50;;;;;;;17.17;13.37;;;7.00;72.10;;;;;;4980962;28;20187;-88
2021/03/05 11:58:15;;;;;;;15.03;12.23;;;7.10;71.00;;;;;;4981638;28;20246;-88
2021/03/05 12:00:41;;;;;;;15.60;13.90;;;7.10;71.10;;;;;;4979076;28;20243;-89
2021/03/05 12:03:07;;;;;;;16.13;14.53;;;7.10;71.40;;;;;;4976046;28;20191;-87
2021/03/05 12:05:33;;;;;;;16.47;13.37;;;7.10;71.80;;;;;;4982469;28;20203;-88
2021/03/05 12:07:59;;;;;;;16.70;13.50;;;7.10;71.10;;;;;;4981665;28;20197;-88
2021/03/05 12:10:26;;;;;;;17.27;13.47;;;7.30;71.60;;;;;;4983548;28;20262;-88
2021/03/05 12:12:52;;;;;;;17.47;13.33;;;7.30;71.80;;;;;;4997575;28;20229;-89
2021/03/05 12:15:18;;;;;;;16.70;13.43;;;7.40;71.40;;;;;;4983525;28;20187;-87
2021/03/05 12:17:44;;;;;;;17.73;13.20;;;7.40;71.70;;;;;;4991277;28;20187;-87
2021/03/05 12:20:10;;;;;;;14.40;12.73;;;7.40;68.90;;;;;;4974963;28;20205;-87
2021/03/05 12:22:36;;;;;;;16.10;13.33;;;7.30;71.40;;;;;;4981495;28;20195;-87
2021/03/05 12:25:02;;;;;;;17.77;13.90;;;7.30;70.20;;;;;;4997540;28;20202;-88
2021/03/05 12:27:28;;;;;;;14.70;12.40;;;7.20;70.40;;;;;;4980560;28;20183;-88
2021/03/05 12:29:54;;;;;;;19.37;14.63;;;7.20;72.10;;;;;;4977248;28;20277;-87
2021/03/05 12:32:19;;;;;;;15.87;12.77;;;7.40;72.50;;;;;;4980427;28;20223;-87
2021/03/05 12:34:46;;;;;;;15.20;12.07;;;7.40;69.70;;;;;;4978281;28;20221;-87
2021/03/05 12:37:12;;;;;;;14.50;11.47;;;7.30;69.30;;;;;;4978488;28;20213;-87
2021/03/05 12:39:37;;;;;;;18.30;11.70;;;7.30;70.60;;;;;;4981354;28;20297;-87
2021/03/05 12:42:04;;;;;;;16.13;12.17;;;7.40;70.70;;;;;;4984040;28;20213;-87
2021/03/05 12:44:30;;;;;;;15.27;12.87;;;7.50;70.90;;;;;;4984447;28;20637;-87
2021/03/05 12:46:55;;;;;;;15.80;13.37;;;7.50;68.40;;;;;;4988324;28;20202;-86
2021/03/05 12:49:21;;;;;;;14.80;12.73;;;7.40;69.90;;;;;;4986657;28;20325;-86